sensor_id;sensor_type;location;lat;lon;timestamp;P1;durP1;ratioP1;P2;durP2;ratioP2
28447;SDS011;15675;52.870;-1.416;2024-03-17T00:01:45;1999.90;;;999.90;;
28447;SDS011;15675;52.870;-1.416;2024-03-17T00:04:10;1999.90;;;999.90;;
28447;SDS011;15675;52.870;-1.416;2024-03-17T00:06:36;1999.90;;;999.90;;
28447;SDS011;15675;52.870;-1.416;2024-03-17T00:09:02;1999.90;;;999.90;;
28447;SDS011;15675;52.870;-1.416;2024-03-17T00:11:32;1999.90;;;999.90;;
28447;SDS011;15675;52.870;-1.416;2024-03-17T00:13:58;1999.90;;;999.90;;
28447;SDS011;15675;52.870;-1.416;2024-03-17T00:16:23;1999.90;;;999.90;;
28447;SDS011;15675;52.870;-1.416;2024-03-17T00:18:49;1999.90;;;999.90;;
28447;SDS011;15675;52.870;-1.416;2024-03-17T00:21:14;1999.90;;;999.90;;
28447;SDS011;15675;52.870;-1.416;2024-03-17T00:23:40;1999.90;;;999.90;;
28447;SDS011;15675;52.870;-1.416;2024-03-17T00:26:05;1999.90;;;999.90;;
28447;SDS011;15675;52.870;-1.416;2024-03-17T00:28:31;1999.90;;;999.90;;
28447;SDS011;15675;52.870;-1.416;2024-03-17T00:30:56;1999.90;;;999.90;;
28447;SDS011;15675;52.870;-1.416;2024-03-17T00:33:22;1999.90;;;999.90;;
28447;SDS011;15675;52.870;-1.416;2024-03-17T00:35:49;1999.90;;;999.90;;
28447;SDS011;15675;52.870;-1.416;2024-03-17T00:38:15;1999.90;;;999.90;;
28447;SDS011;15675;52.870;-1.416;2024-03-17T00:40:40;1999.90;;;999.90;;
28447;SDS011;15675;52.870;-1.416;2024-03-17T00:43:06;1999.90;;;999.90;;
28447;SDS011;15675;52.870;-1.416;2024-03-17T00:45:33;1999.90;;;999.90;;
28447;SDS011;15675;52.870;-1.416;2024-03-17T00:47:58;1999.90;;;999.90;;
28447;SDS011;15675;52.870;-1.416;2024-03-17T00:50:24;1999.90;;;999.90;;
28447;SDS011;15675;52.870;-1.416;2024-03-17T00:52:49;1999.90;;;999.90;;
28447;SDS011;15675;52.870;-1.416;2024-03-17T00:55:15;1999.90;;;999.90;;
28447;SDS011;15675;52.870;-1.416;2024-03-17T00:57:41;1999.90;;;999.90;;
28447;SDS011;15675;52.870;-1.416;2024-03-17T01:00:07;1999.90;;;999.90;;
28447;SDS011;15675;52.870;-1.416;2024-03-17T01:02:36;1999.90;;;999.90;;
28447;SDS011;15675;52.870;-1.416;2024-03-17T01:05:03;1999.90;;;999.90;;
28447;SDS011;15675;52.870;-1.416;2024-03-17T01:07:31;1999.90;;;999.90;;
28447;SDS011;15675;52.870;-1.416;2024-03-17T01:09:57;1999.90;;;999.90;;
28447;SDS011;15675;52.870;-1.416;2024-03-17T01:12:22;1999.90;;;999.90;;
28447;SDS011;15675;52.870;-1.416;2024-03-17T01:14:48;1999.90;;;999.90;;
28447;SDS011;15675;52.870;-1.416;2024-03-17T01:17:15;1999.90;;;999.90;;
28447;SDS011;15675;52.870;-1.416;2024-03-17T01:19:40;1999.90;;;999.90;;
28447;SDS011;15675;52.870;-1.416;2024-03-17T01:22:06;1999.90;;;999.90;;
28447;SDS011;15675;52.870;-1.416;2024-03-17T01:24:32;1999.90;;;999.90;;
28447;SDS011;15675;52.870;-1.416;2024-03-17T01:26:59;1999.90;;;999.90;;
28447;SDS011;15675;52.870;-1.416;2024-03-17T01:29:25;1999.90;;;999.90;;
28447;SDS011;15675;52.870;-1.416;2024-03-17T01:31:51;1999.90;;;999.90;;
28447;SDS011;15675;52.870;-1.416;2024-03-17T01:34:18;1999.90;;;999.90;;
28447;SDS011;15675;52.870;-1.416;2024-03-17T01:36:46;1999.90;;;999.90;;
28447;SDS011;15675;52.870;-1.416;2024-03-17T01:39:12;1999.90;;;999.90;;
28447;SDS011;15675;52.870;-1.416;2024-03-17T01:41:38;1999.90;;;999.90;;
28447;SDS011;15675;52.870;-1.416;2024-03-17T01:44:04;1999.90;;;999.90;;
28447;SDS011;15675;52.870;-1.416;2024-03-17T01:46:29;1999.90;;;999.90;;
28447;SDS011;15675;52.870;-1.416;2024-03-17T01:48:55;1999.90;;;999.90;;
28447;SDS011;15675;52.870;-1.416;2024-03-17T01:51:22;1999.90;;;999.90;;
28447;SDS011;15675;52.870;-1.416;2024-03-17T01:53:48;1999.90;;;999.90;;
28447;SDS011;15675;52.870;-1.416;2024-03-17T01:56:14;1999.90;;;999.90;;
28447;SDS011;15675;52.870;-1.416;2024-03-17T01:58:44;1999.90;;;999.90;;
28447;SDS011;15675;52.870;-1.416;2024-03-17T02:01:11;1999.90;;;999.90;;
28447;SDS011;15675;52.870;-1.416;2024-03-17T02:03:40;1999.90;;;999.90;;
28447;SDS011;15675;52.870;-1.416;2024-03-17T02:06:07;1999.90;;;999.90;;
28447;SDS011;15675;52.870;-1.416;2024-03-17T02:08:50;1999.90;;;999.90;;
28447;SDS011;15675;52.870;-1.416;2024-03-17T02:11:29;1999.90;;;999.90;;
28447;SDS011;15675;52.870;-1.416;2024-03-17T02:13:56;1999.90;;;999.90;;
28447;SDS011;15675;52.870;-1.416;2024-03-17T02:16:24;1999.90;;;999.90;;
28447;SDS011;15675;52.870;-1.416;2024-03-17T02:18:56;1999.90;;;999.90;;
28447;SDS011;15675;52.870;-1.416;2024-03-17T02:21:22;1999.90;;;999.90;;
28447;SDS011;15675;52.870;-1.416;2024-03-17T02:23:50;1999.90;;;999.90;;
28447;SDS011;15675;52.870;-1.416;2024-03-17T02:26:18;1999.90;;;999.90;;
28447;SDS011;15675;52.870;-1.416;2024-03-17T02:28:45;1999.90;;;999.90;;
28447;SDS011;15675;52.870;-1.416;2024-03-17T02:31:12;1999.90;;;999.90;;
28447;SDS011;15675;52.870;-1.416;2024-03-17T02:33:41;1999.90;;;999.90;;
28447;SDS011;15675;52.870;-1.416;2024-03-17T02:36:07;1999.90;;;999.90;;
28447;SDS011;15675;52.870;-1.416;2024-03-17T02:38:35;1999.90;;;999.90;;
28447;SDS011;15675;52.870;-1.416;2024-03-17T02:41:20;1999.90;;;999.90;;
28447;SDS011;15675;52.870;-1.416;2024-03-17T02:43:46;1999.90;;;999.90;;
28447;SDS011;15675;52.870;-1.416;2024-03-17T02:46:13;1999.90;;;999.90;;
28447;SDS011;15675;52.870;-1.416;2024-03-17T02:48:40;1999.90;;;999.90;;
28447;SDS011;15675;52.870;-1.416;2024-03-17T02:51:21;1999.90;;;999.90;;
28447;SDS011;15675;52.870;-1.416;2024-03-17T02:53:48;1999.90;;;999.90;;
28447;SDS011;15675;52.870;-1.416;2024-03-17T02:56:15;1999.90;;;999.90;;
28447;SDS011;15675;52.870;-1.416;2024-03-17T02:58:41;1999.90;;;999.90;;
28447;SDS011;15675;52.870;-1.416;2024-03-17T03:01:08;1999.90;;;999.90;;
28447;SDS011;15675;52.870;-1.416;2024-03-17T03:03:35;1999.90;;;999.90;;
28447;SDS011;15675;52.870;-1.416;2024-03-17T03:06:01;1999.90;;;999.90;;
28447;SDS011;15675;52.870;-1.416;2024-03-17T03:08:30;1999.90;;;999.90;;
28447;SDS011;15675;52.870;-1.416;2024-03-17T03:10:56;1999.90;;;999.90;;
28447;SDS011;15675;52.870;-1.416;2024-03-17T03:13:21;1999.90;;;999.90;;
28447;SDS011;15675;52.870;-1.416;2024-03-17T03:15:47;1999.90;;;999.90;;
28447;SDS011;15675;52.870;-1.416;2024-03-17T03:18:14;1999.90;;;999.90;;
28447;SDS011;15675;52.870;-1.416;2024-03-17T03:20:40;1999.90;;;999.90;;
28447;SDS011;15675;52.870;-1.416;2024-03-17T03:23:06;1999.90;;;999.90;;
28447;SDS011;15675;52.870;-1.416;2024-03-17T03:25:32;1999.90;;;999.90;;
28447;SDS011;15675;52.870;-1.416;2024-03-17T03:27:58;1999.90;;;999.90;;
28447;SDS011;15675;52.870;-1.416;2024-03-17T03:30:24;1999.90;;;999.90;;
28447;SDS011;15675;52.870;-1.416;2024-03-17T03:32:49;1999.90;;;999.90;;
28447;SDS011;15675;52.870;-1.416;2024-03-17T03:35:15;1999.90;;;999.90;;
28447;SDS011;15675;52.870;-1.416;2024-03-17T03:37:42;1999.90;;;999.90;;
28447;SDS011;15675;52.870;-1.416;2024-03-17T03:40:08;1999.90;;;999.90;;
28447;SDS011;15675;52.870;-1.416;2024-03-17T03:42:43;1999.90;;;999.90;;
28447;SDS011;15675;52.870;-1.416;2024-03-17T03:45:10;1999.90;;;999.90;;
28447;SDS011;15675;52.870;-1.416;2024-03-17T03:47:42;1999.90;;;999.90;;
28447;SDS011;15675;52.870;-1.416;2024-03-17T03:50:09;1999.90;;;999.90;;
28447;SDS011;15675;52.870;-1.416;2024-03-17T03:52:36;1999.90;;;999.90;;
28447;SDS011;15675;52.870;-1.416;2024-03-17T03:55:02;1999.90;;;999.90;;
28447;SDS011;15675;52.870;-1.416;2024-03-17T03:57:29;1999.90;;;999.90;;
28447;SDS011;15675;52.870;-1.416;2024-03-17T03:59:57;1999.90;;;999.90;;
28447;SDS011;15675;52.870;-1.416;2024-03-17T04:02:24;1999.90;;;999.90;;
28447;SDS011;15675;52.870;-1.416;2024-03-17T04:04:52;1999.90;;;999.90;;
28447;SDS011;15675;52.870;-1.416;2024-03-17T04:07:18;1999.90;;;999.90;;
28447;SDS011;15675;52.870;-1.416;2024-03-17T04:09:44;1999.90;;;999.90;;
28447;SDS011;15675;52.870;-1.416;2024-03-17T04:12:09;1999.90;;;999.90;;
28447;SDS011;15675;52.870;-1.416;2024-03-17T04:14:35;1999.90;;;999.90;;
28447;SDS011;15675;52.870;-1.416;2024-03-17T04:17:00;1999.90;;;999.90;;
28447;SDS011;15675;52.870;-1.416;2024-03-17T04:19:26;1999.90;;;999.90;;
28447;SDS011;15675;52.870;-1.416;2024-03-17T04:21:51;1999.90;;;999.90;;
28447;SDS011;15675;52.870;-1.416;2024-03-17T04:24:17;1999.90;;;999.90;;
28447;SDS011;15675;52.870;-1.416;2024-03-17T04:26:43;1999.90;;;999.90;;
28447;SDS011;15675;52.870;-1.416;2024-03-17T04:29:09;1999.90;;;999.90;;
28447;SDS011;15675;52.870;-1.416;2024-03-17T04:31:34;1999.90;;;999.90;;
28447;SDS011;15675;52.870;-1.416;2024-03-17T04:34:00;1999.90;;;999.90;;
28447;SDS011;15675;52.870;-1.416;2024-03-17T04:36:26;1999.90;;;999.90;;
28447;SDS011;15675;52.870;-1.416;2024-03-17T04:38:52;1999.90;;;999.90;;
28447;SDS011;15675;52.870;-1.416;2024-03-17T04:41:19;1999.90;;;999.90;;
28447;SDS011;15675;52.870;-1.416;2024-03-17T04:43:45;1999.90;;;999.90;;
28447;SDS011;15675;52.870;-1.416;2024-03-17T04:46:11;1999.90;;;999.90;;
28447;SDS011;15675;52.870;-1.416;2024-03-17T04:48:40;1999.90;;;999.90;;
28447;SDS011;15675;52.870;-1.416;2024-03-17T04:51:07;1999.90;;;999.90;;
28447;SDS011;15675;52.870;-1.416;2024-03-17T04:53:34;1999.90;;;999.90;;
28447;SDS011;15675;52.870;-1.416;2024-03-17T04:56:03;1999.90;;;999.90;;
28447;SDS011;15675;52.870;-1.416;2024-03-17T04:58:31;1999.90;;;999.90;;
28447;SDS011;15675;52.870;-1.416;2024-03-17T05:00:59;1999.90;;;999.90;;
28447;SDS011;15675;52.870;-1.416;2024-03-17T05:03:28;1999.90;;;999.90;;
28447;SDS011;15675;52.870;-1.416;2024-03-17T05:06:04;1999.90;;;999.90;;
28447;SDS011;15675;52.870;-1.416;2024-03-17T05:08:30;1999.90;;;999.90;;
28447;SDS011;15675;52.870;-1.416;2024-03-17T05:11:00;1999.90;;;999.90;;
28447;SDS011;15675;52.870;-1.416;2024-03-17T05:13:33;1999.90;;;999.90;;
28447;SDS011;15675;52.870;-1.416;2024-03-17T05:16:01;1999.90;;;999.90;;
28447;SDS011;15675;52.870;-1.416;2024-03-17T05:18:29;1999.90;;;999.90;;
28447;SDS011;15675;52.870;-1.416;2024-03-17T05:21:04;1999.90;;;999.90;;
28447;SDS011;15675;52.870;-1.416;2024-03-17T05:23:31;1999.90;;;999.90;;
28447;SDS011;15675;52.870;-1.416;2024-03-17T05:25:58;1999.90;;;999.90;;
28447;SDS011;15675;52.870;-1.416;2024-03-17T05:28:26;1999.90;;;999.90;;
28447;SDS011;15675;52.870;-1.416;2024-03-17T05:30:53;1999.90;;;999.90;;
28447;SDS011;15675;52.870;-1.416;2024-03-17T05:33:20;1999.90;;;999.90;;
28447;SDS011;15675;52.870;-1.416;2024-03-17T05:35:50;1999.90;;;999.90;;
28447;SDS011;15675;52.870;-1.416;2024-03-17T05:38:18;1999.90;;;999.90;;
28447;SDS011;15675;52.870;-1.416;2024-03-17T05:40:52;1999.90;;;999.90;;
28447;SDS011;15675;52.870;-1.416;2024-03-17T05:43:38;1999.90;;;999.90;;
28447;SDS011;15675;52.870;-1.416;2024-03-17T05:48:37;1999.90;;;999.90;;
28447;SDS011;15675;52.870;-1.416;2024-03-17T05:51:08;1999.90;;;999.90;;
28447;SDS011;15675;52.870;-1.416;2024-03-17T05:53:34;1999.90;;;999.90;;
28447;SDS011;15675;52.870;-1.416;2024-03-17T05:56:01;1999.90;;;999.90;;
28447;SDS011;15675;52.870;-1.416;2024-03-17T05:58:27;1999.90;;;999.90;;
28447;SDS011;15675;52.870;-1.416;2024-03-17T06:00:53;1999.90;;;999.90;;
28447;SDS011;15675;52.870;-1.416;2024-03-17T06:03:19;1999.90;;;999.90;;
28447;SDS011;15675;52.870;-1.416;2024-03-17T06:05:45;1999.90;;;999.90;;
28447;SDS011;15675;52.870;-1.416;2024-03-17T06:08:11;1999.90;;;999.90;;
28447;SDS011;15675;52.870;-1.416;2024-03-17T06:10:38;1999.90;;;999.90;;
28447;SDS011;15675;52.870;-1.416;2024-03-17T06:13:07;1999.90;;;999.90;;
28447;SDS011;15675;52.870;-1.416;2024-03-17T06:15:37;1999.90;;;999.90;;
28447;SDS011;15675;52.870;-1.416;2024-03-17T06:18:03;1999.90;;;999.90;;
28447;SDS011;15675;52.870;-1.416;2024-03-17T06:20:28;1999.90;;;999.90;;
28447;SDS011;15675;52.870;-1.416;2024-03-17T06:22:54;1999.90;;;999.90;;
28447;SDS011;15675;52.870;-1.416;2024-03-17T06:25:20;1999.90;;;999.90;;
28447;SDS011;15675;52.870;-1.416;2024-03-17T06:27:52;1999.90;;;999.90;;
28447;SDS011;15675;52.870;-1.416;2024-03-17T06:30:18;1999.90;;;999.90;;
28447;SDS011;15675;52.870;-1.416;2024-03-17T06:32:44;1999.90;;;999.90;;
28447;SDS011;15675;52.870;-1.416;2024-03-17T06:35:12;1999.90;;;999.90;;
28447;SDS011;15675;52.870;-1.416;2024-03-17T06:37:43;1999.90;;;999.90;;
28447;SDS011;15675;52.870;-1.416;2024-03-17T06:40:09;1999.90;;;999.90;;
28447;SDS011;15675;52.870;-1.416;2024-03-17T06:42:38;1999.90;;;999.90;;
28447;SDS011;15675;52.870;-1.416;2024-03-17T06:45:04;1999.90;;;999.90;;
28447;SDS011;15675;52.870;-1.416;2024-03-17T06:47:30;1999.90;;;999.90;;
28447;SDS011;15675;52.870;-1.416;2024-03-17T06:49:56;1999.90;;;999.90;;
28447;SDS011;15675;52.870;-1.416;2024-03-17T06:52:23;1999.90;;;999.90;;
28447;SDS011;15675;52.870;-1.416;2024-03-17T06:54:50;1999.90;;;999.90;;
28447;SDS011;15675;52.870;-1.416;2024-03-17T06:57:15;1999.90;;;999.90;;
28447;SDS011;15675;52.870;-1.416;2024-03-17T06:59:43;1999.90;;;999.90;;
28447;SDS011;15675;52.870;-1.416;2024-03-17T07:02:11;1999.90;;;999.90;;
28447;SDS011;15675;52.870;-1.416;2024-03-17T07:04:41;1999.90;;;999.90;;
28447;SDS011;15675;52.870;-1.416;2024-03-17T07:07:06;1999.90;;;999.90;;
28447;SDS011;15675;52.870;-1.416;2024-03-17T07:09:32;1999.90;;;999.90;;
28447;SDS011;15675;52.870;-1.416;2024-03-17T07:11:57;1999.90;;;999.90;;
28447;SDS011;15675;52.870;-1.416;2024-03-17T07:14:23;1999.90;;;999.90;;
28447;SDS011;15675;52.870;-1.416;2024-03-17T07:16:51;1999.90;;;999.90;;
28447;SDS011;15675;52.870;-1.416;2024-03-17T07:19:16;1999.90;;;999.90;;
28447;SDS011;15675;52.870;-1.416;2024-03-17T07:21:42;1999.90;;;999.90;;
28447;SDS011;15675;52.870;-1.416;2024-03-17T07:24:08;1999.90;;;999.90;;
28447;SDS011;15675;52.870;-1.416;2024-03-17T07:26:33;1999.90;;;999.90;;
28447;SDS011;15675;52.870;-1.416;2024-03-17T07:29:00;1999.90;;;999.90;;
28447;SDS011;15675;52.870;-1.416;2024-03-17T07:31:25;1999.90;;;999.90;;
28447;SDS011;15675;52.870;-1.416;2024-03-17T07:33:51;1999.90;;;999.90;;
28447;SDS011;15675;52.870;-1.416;2024-03-17T07:36:16;1999.90;;;999.90;;
28447;SDS011;15675;52.870;-1.416;2024-03-17T07:38:44;1999.90;;;999.90;;
28447;SDS011;15675;52.870;-1.416;2024-03-17T07:41:10;1999.90;;;999.90;;
28447;SDS011;15675;52.870;-1.416;2024-03-17T07:43:36;1999.90;;;999.90;;
28447;SDS011;15675;52.870;-1.416;2024-03-17T07:48:36;1999.90;;;999.90;;
28447;SDS011;15675;52.870;-1.416;2024-03-17T07:51:03;1999.90;;;999.90;;
28447;SDS011;15675;52.870;-1.416;2024-03-17T07:53:35;1999.90;;;999.90;;
28447;SDS011;15675;52.870;-1.416;2024-03-17T07:56:04;1999.90;;;999.90;;
28447;SDS011;15675;52.870;-1.416;2024-03-17T07:58:34;1999.90;;;999.90;;
28447;SDS011;15675;52.870;-1.416;2024-03-17T08:01:08;1999.90;;;999.90;;
28447;SDS011;15675;52.870;-1.416;2024-03-17T08:03:36;1999.90;;;999.90;;
28447;SDS011;15675;52.870;-1.416;2024-03-17T08:06:03;1999.90;;;999.90;;
28447;SDS011;15675;52.870;-1.416;2024-03-17T08:08:30;1999.90;;;999.90;;
28447;SDS011;15675;52.870;-1.416;2024-03-17T08:10:56;1999.90;;;999.90;;
28447;SDS011;15675;52.870;-1.416;2024-03-17T08:13:22;1999.90;;;999.90;;
28447;SDS011;15675;52.870;-1.416;2024-03-17T08:15:57;1999.90;;;999.90;;
28447;SDS011;15675;52.870;-1.416;2024-03-17T08:18:25;1999.90;;;999.90;;
28447;SDS011;15675;52.870;-1.416;2024-03-17T08:20:52;1999.90;;;999.90;;
28447;SDS011;15675;52.870;-1.416;2024-03-17T08:23:19;1999.90;;;999.90;;
28447;SDS011;15675;52.870;-1.416;2024-03-17T08:25:52;1999.90;;;999.90;;
28447;SDS011;15675;52.870;-1.416;2024-03-17T08:28:17;1999.90;;;999.90;;
28447;SDS011;15675;52.870;-1.416;2024-03-17T08:30:43;1999.90;;;999.90;;
28447;SDS011;15675;52.870;-1.416;2024-03-17T08:33:16;1999.90;;;999.90;;
28447;SDS011;15675;52.870;-1.416;2024-03-17T08:35:41;1999.90;;;999.90;;
28447;SDS011;15675;52.870;-1.416;2024-03-17T08:38:07;1999.90;;;999.90;;
28447;SDS011;15675;52.870;-1.416;2024-03-17T08:40:32;1999.90;;;999.90;;
28447;SDS011;15675;52.870;-1.416;2024-03-17T08:42:58;1999.90;;;999.90;;
28447;SDS011;15675;52.870;-1.416;2024-03-17T08:45:24;1999.90;;;999.90;;
28447;SDS011;15675;52.870;-1.416;2024-03-17T08:47:52;1999.90;;;999.90;;
28447;SDS011;15675;52.870;-1.416;2024-03-17T08:50:19;1999.90;;;999.90;;
28447;SDS011;15675;52.870;-1.416;2024-03-17T08:52:44;1999.90;;;999.90;;
28447;SDS011;15675;52.870;-1.416;2024-03-17T08:55:10;1999.90;;;999.90;;
28447;SDS011;15675;52.870;-1.416;2024-03-17T08:57:39;1999.90;;;999.90;;
28447;SDS011;15675;52.870;-1.416;2024-03-17T09:00:05;1999.90;;;999.90;;
28447;SDS011;15675;52.870;-1.416;2024-03-17T09:02:33;1999.90;;;999.90;;
28447;SDS011;15675;52.870;-1.416;2024-03-17T09:05:00;1999.90;;;999.90;;
28447;SDS011;15675;52.870;-1.416;2024-03-17T09:07:25;1999.90;;;999.90;;
28447;SDS011;15675;52.870;-1.416;2024-03-17T09:09:51;1999.90;;;999.90;;
28447;SDS011;15675;52.870;-1.416;2024-03-17T09:12:23;1999.90;;;999.90;;
28447;SDS011;15675;52.870;-1.416;2024-03-17T09:14:48;1999.90;;;999.90;;
28447;SDS011;15675;52.870;-1.416;2024-03-17T09:17:14;1999.90;;;999.90;;
28447;SDS011;15675;52.870;-1.416;2024-03-17T09:19:40;1999.90;;;999.90;;
28447;SDS011;15675;52.870;-1.416;2024-03-17T09:22:06;1999.90;;;999.90;;
28447;SDS011;15675;52.870;-1.416;2024-03-17T09:24:31;1999.90;;;999.90;;
28447;SDS011;15675;52.870;-1.416;2024-03-17T09:26:57;1999.90;;;999.90;;
28447;SDS011;15675;52.870;-1.416;2024-03-17T09:29:22;1999.90;;;999.90;;
28447;SDS011;15675;52.870;-1.416;2024-03-17T09:31:49;1999.90;;;999.90;;
28447;SDS011;15675;52.870;-1.416;2024-03-17T09:34:14;1999.90;;;999.90;;
28447;SDS011;15675;52.870;-1.416;2024-03-17T09:36:40;1999.90;;;999.90;;
28447;SDS011;15675;52.870;-1.416;2024-03-17T09:39:05;1999.90;;;999.90;;
28447;SDS011;15675;52.870;-1.416;2024-03-17T09:41:31;1999.90;;;999.90;;
28447;SDS011;15675;52.870;-1.416;2024-03-17T09:43:57;1999.90;;;999.90;;
28447;SDS011;15675;52.870;-1.416;2024-03-17T09:46:24;1999.90;;;999.90;;
28447;SDS011;15675;52.870;-1.416;2024-03-17T09:48:54;1999.90;;;999.90;;
28447;SDS011;15675;52.870;-1.416;2024-03-17T09:51:23;1999.90;;;999.90;;
28447;SDS011;15675;52.870;-1.416;2024-03-17T09:53:50;1999.90;;;999.90;;
28447;SDS011;15675;52.870;-1.416;2024-03-17T09:56:17;1999.90;;;999.90;;
28447;SDS011;15675;52.870;-1.416;2024-03-17T09:58:45;1999.90;;;999.90;;
28447;SDS011;15675;52.870;-1.416;2024-03-17T10:01:15;1999.90;;;999.90;;
28447;SDS011;15675;52.870;-1.416;2024-03-17T10:03:53;1999.90;;;999.90;;
28447;SDS011;15675;52.870;-1.416;2024-03-17T10:06:24;1999.90;;;999.90;;
28447;SDS011;15675;52.870;-1.416;2024-03-17T10:08:53;1999.90;;;999.90;;
28447;SDS011;15675;52.870;-1.416;2024-03-17T10:11:21;1999.90;;;999.90;;
28447;SDS011;15675;52.870;-1.416;2024-03-17T10:14:01;1999.90;;;999.90;;
28447;SDS011;15675;52.870;-1.416;2024-03-17T10:16:34;1999.90;;;999.90;;
28447;SDS011;15675;52.870;-1.416;2024-03-17T10:21:37;1999.90;;;999.90;;
28447;SDS011;15675;52.870;-1.416;2024-03-17T10:24:13;1999.90;;;999.90;;
28447;SDS011;15675;52.870;-1.416;2024-03-17T10:26:49;1999.90;;;999.90;;
28447;SDS011;15675;52.870;-1.416;2024-03-17T10:31:58;1999.90;;;999.90;;
28447;SDS011;15675;52.870;-1.416;2024-03-17T10:34:27;1999.90;;;999.90;;
28447;SDS011;15675;52.870;-1.416;2024-03-17T10:39:36;1999.90;;;999.90;;
28447;SDS011;15675;52.870;-1.416;2024-03-17T10:42:03;1999.90;;;999.90;;
28447;SDS011;15675;52.870;-1.416;2024-03-17T10:44:30;1999.90;;;999.90;;
28447;SDS011;15675;52.870;-1.416;2024-03-17T10:46:58;1999.90;;;999.90;;
28447;SDS011;15675;52.870;-1.416;2024-03-17T10:49:27;1999.90;;;999.90;;
28447;SDS011;15675;52.870;-1.416;2024-03-17T10:52:01;1999.90;;;999.90;;
28447;SDS011;15675;52.870;-1.416;2024-03-17T10:54:29;1999.90;;;999.90;;
28447;SDS011;15675;52.870;-1.416;2024-03-17T10:56:56;1999.90;;;999.90;;
28447;SDS011;15675;52.870;-1.416;2024-03-17T10:59:40;1999.90;;;999.90;;
28447;SDS011;15675;52.870;-1.416;2024-03-17T11:02:20;1999.90;;;999.90;;
28447;SDS011;15675;52.870;-1.416;2024-03-17T11:04:54;1999.90;;;999.90;;
28447;SDS011;15675;52.870;-1.416;2024-03-17T11:07:21;1999.90;;;999.90;;
28447;SDS011;15675;52.870;-1.416;2024-03-17T11:09:48;1999.90;;;999.90;;
28447;SDS011;15675;52.870;-1.416;2024-03-17T11:17:44;1999.90;;;999.90;;
28447;SDS011;15675;52.870;-1.416;2024-03-17T11:20:26;1999.90;;;999.90;;
28447;SDS011;15675;52.870;-1.416;2024-03-17T11:22:57;1999.90;;;999.90;;
28447;SDS011;15675;52.870;-1.416;2024-03-17T11:27:52;1999.90;;;999.90;;
28447;SDS011;15675;52.870;-1.416;2024-03-17T11:39:03;1999.90;;;999.90;;
28447;SDS011;15675;52.870;-1.416;2024-03-17T11:41:45;1999.90;;;999.90;;
28447;SDS011;15675;52.870;-1.416;2024-03-17T11:51:50;1999.90;;;999.90;;
28447;SDS011;15675;52.870;-1.416;2024-03-17T11:54:17;1999.90;;;999.90;;
28447;SDS011;15675;52.870;-1.416;2024-03-17T11:56:48;1999.90;;;999.90;;
28447;SDS011;15675;52.870;-1.416;2024-03-17T11:59:15;1999.90;;;999.90;;
28447;SDS011;15675;52.870;-1.416;2024-03-17T12:01:43;1999.90;;;999.90;;
28447;SDS011;15675;52.870;-1.416;2024-03-17T12:04:10;1999.90;;;999.90;;
28447;SDS011;15675;52.870;-1.416;2024-03-17T12:06:38;1999.90;;;999.90;;
28447;SDS011;15675;52.870;-1.416;2024-03-17T12:12:05;1999.90;;;999.90;;
28447;SDS011;15675;52.870;-1.416;2024-03-17T12:14:34;1999.90;;;999.90;;
28447;SDS011;15675;52.870;-1.416;2024-03-17T12:17:04;1999.90;;;999.90;;
28447;SDS011;15675;52.870;-1.416;2024-03-17T12:19:32;1999.90;;;999.90;;
28447;SDS011;15675;52.870;-1.416;2024-03-17T12:21:59;1999.90;;;999.90;;
28447;SDS011;15675;52.870;-1.416;2024-03-17T12:24:30;1999.90;;;999.90;;
28447;SDS011;15675;52.870;-1.416;2024-03-17T12:26:57;1999.90;;;999.90;;
28447;SDS011;15675;52.870;-1.416;2024-03-17T12:29:27;1999.90;;;999.90;;
28447;SDS011;15675;52.870;-1.416;2024-03-17T12:32:06;1999.90;;;999.90;;
28447;SDS011;15675;52.870;-1.416;2024-03-17T12:34:38;1999.90;;;999.90;;
28447;SDS011;15675;52.870;-1.416;2024-03-17T12:37:05;1999.90;;;999.90;;
28447;SDS011;15675;52.870;-1.416;2024-03-17T12:42:13;1999.90;;;999.90;;
28447;SDS011;15675;52.870;-1.416;2024-03-17T12:44:40;1999.90;;;999.90;;
28447;SDS011;15675;52.870;-1.416;2024-03-17T12:47:16;1999.90;;;999.90;;
28447;SDS011;15675;52.870;-1.416;2024-03-17T12:52:23;1999.90;;;999.90;;
28447;SDS011;15675;52.870;-1.416;2024-03-17T12:57:43;1999.90;;;999.90;;
28447;SDS011;15675;52.870;-1.416;2024-03-17T13:00:28;1999.90;;;999.90;;
28447;SDS011;15675;52.870;-1.416;2024-03-17T13:02:56;1999.90;;;999.90;;
28447;SDS011;15675;52.870;-1.416;2024-03-17T13:05:22;1999.90;;;999.90;;
28447;SDS011;15675;52.870;-1.416;2024-03-17T13:07:48;1999.90;;;999.90;;
28447;SDS011;15675;52.870;-1.416;2024-03-17T13:10:18;1999.90;;;999.90;;
28447;SDS011;15675;52.870;-1.416;2024-03-17T13:12:45;1999.90;;;999.90;;
28447;SDS011;15675;52.870;-1.416;2024-03-17T13:15:15;1999.90;;;999.90;;
28447;SDS011;15675;52.870;-1.416;2024-03-17T13:17:44;1999.90;;;999.90;;
28447;SDS011;15675;52.870;-1.416;2024-03-17T13:20:12;1999.90;;;999.90;;
28447;SDS011;15675;52.870;-1.416;2024-03-17T13:22:42;1999.90;;;999.90;;
28447;SDS011;15675;52.870;-1.416;2024-03-17T13:25:18;1999.90;;;999.90;;
28447;SDS011;15675;52.870;-1.416;2024-03-17T13:27:49;34.13;;;32.55;;
28447;SDS011;15675;52.870;-1.416;2024-03-17T13:30:16;1999.90;;;999.90;;
28447;SDS011;15675;52.870;-1.416;2024-03-17T13:32:44;48.50;;;46.20;;
28447;SDS011;15675;52.870;-1.416;2024-03-17T13:35:17;49.97;;;47.63;;
28447;SDS011;15675;52.870;-1.416;2024-03-17T13:37:44;46.88;;;44.67;;
28447;SDS011;15675;52.870;-1.416;2024-03-17T13:40:11;48.45;;;46.17;;
28447;SDS011;15675;52.870;-1.416;2024-03-17T13:42:40;46.80;;;44.63;;
28447;SDS011;15675;52.870;-1.416;2024-03-17T13:45:07;43.92;;;41.92;;
28447;SDS011;15675;52.870;-1.416;2024-03-17T13:47:36;42.05;;;40.00;;
28447;SDS011;15675;52.870;-1.416;2024-03-17T13:50:01;43.25;;;41.25;;
28447;SDS011;15675;52.870;-1.416;2024-03-17T13:52:31;40.95;;;38.90;;
28447;SDS011;15675;52.870;-1.416;2024-03-17T13:54:58;40.38;;;38.50;;
28447;SDS011;15675;52.870;-1.416;2024-03-17T13:57:24;43.22;;;41.17;;
28447;SDS011;15675;52.870;-1.416;2024-03-17T13:59:50;42.45;;;40.13;;
28447;SDS011;15675;52.870;-1.416;2024-03-17T14:02:17;42.28;;;40.28;;
28447;SDS011;15675;52.870;-1.416;2024-03-17T14:04:42;40.97;;;39.08;;
28447;SDS011;15675;52.870;-1.416;2024-03-17T14:07:08;38.72;;;36.92;;
28447;SDS011;15675;52.870;-1.416;2024-03-17T14:09:33;38.97;;;37.17;;
28447;SDS011;15675;52.870;-1.416;2024-03-17T14:11:59;38.00;;;36.00;;
28447;SDS011;15675;52.870;-1.416;2024-03-17T14:14:24;39.40;;;37.60;;
28447;SDS011;15675;52.870;-1.416;2024-03-17T14:16:50;38.35;;;36.58;;
28447;SDS011;15675;52.870;-1.416;2024-03-17T14:19:15;37.33;;;35.63;;
28447;SDS011;15675;52.870;-1.416;2024-03-17T14:21:41;35.20;;;33.40;;
28447;SDS011;15675;52.870;-1.416;2024-03-17T14:24:06;37.10;;;35.30;;
28447;SDS011;15675;52.870;-1.416;2024-03-17T14:26:35;29.38;;;27.98;;
28447;SDS011;15675;52.870;-1.416;2024-03-17T14:29:01;29.90;;;28.50;;